createdAt,value
2018-06-19T00:00:09.216Z,90.37
2018-06-19T00:01:09.176Z,90.28
2018-06-19T00:02:09.180Z,89.89
2018-06-19T00:03:09.220Z,89.70
2018-06-19T00:04:09.218Z,89.70
2018-06-19T00:05:09.221Z,89.70
2018-06-19T00:07:41.868Z,89.99
2018-06-19T00:08:42.082Z,90.28
2018-06-19T00:09:42.036Z,90.18
2018-06-19T00:10:42.085Z,90.56
2018-06-19T00:11:42.068Z,90.08
2018-06-19T00:12:42.100Z,90.37
2018-06-19T00:13:42.055Z,90.42
2018-06-19T00:14:43.887Z,90.52
2018-06-19T00:15:42.317Z,90.42
2018-06-19T00:16:48.117Z,90.23
2018-06-19T00:17:56.118Z,90.33
2018-06-19T00:18:42.103Z,90.33
2018-06-19T00:19:42.099Z,90.52
2018-06-19T00:20:42.033Z,90.23
2018-06-19T00:21:42.048Z,91.00
2018-06-19T00:22:42.039Z,91.00
2018-06-19T00:23:42.029Z,90.42
2018-06-19T00:24:42.055Z,90.81
2018-06-19T00:25:42.067Z,91.00
2018-06-19T00:26:42.049Z,90.42
2018-06-19T00:27:42.084Z,90.61
2018-06-19T00:28:42.083Z,90.81
2018-06-19T00:29:48.091Z,91.38
2018-06-19T00:30:48.451Z,91.77
2018-06-19T00:31:48.065Z,91.38
2018-06-19T00:32:42.053Z,91.28
2018-06-19T00:33:42.104Z,91.77
2018-06-19T00:34:42.104Z,91.67
2018-06-19T00:35:42.089Z,92.54
2018-06-19T00:36:42.117Z,92.63
2018-06-19T00:37:42.082Z,92.54
2018-06-19T00:38:42.086Z,92.72
2018-06-19T00:39:42.058Z,92.54
2018-06-19T00:40:41.666Z,92.54
2018-06-19T00:41:42.100Z,92.34
2018-06-19T00:42:41.242Z,92.54
2018-06-19T00:43:42.013Z,91.86
2018-06-19T00:44:42.823Z,91.96
2018-06-19T00:45:42.048Z,91.96
2018-06-19T00:46:42.343Z,92.15
2018-06-19T00:47:42.048Z,92.05
2018-06-19T00:48:42.063Z,91.96
2018-06-19T00:49:42.090Z,92.05
2018-06-19T00:50:42.048Z,91.67
2018-06-19T00:51:42.039Z,91.28
2018-06-19T00:52:42.036Z,91.57
2018-06-19T00:53:40.725Z,91.67
2018-06-19T00:54:42.066Z,91.19
2018-06-19T00:55:42.083Z,91.48
2018-06-19T00:56:42.365Z,91.00
2018-06-19T00:57:42.085Z,91.09
2018-06-19T00:58:42.116Z,91.19
2018-06-19T00:59:42.108Z,90.85
2018-06-19T01:00:42.088Z,90.85
2018-06-19T01:01:42.368Z,91.05
2018-06-19T01:02:42.109Z,91.09
2018-06-19T01:03:42.373Z,90.75
2018-06-19T01:04:42.226Z,90.33
2018-06-19T01:05:42.454Z,91.00
2018-06-19T01:06:42.163Z,90.75
2018-06-19T01:07:42.295Z,90.33
2018-06-19T01:08:42.155Z,90.61
2018-06-19T01:09:42.215Z,91.00
2018-06-19T01:10:48.286Z,90.47
2018-06-19T01:11:48.155Z,90.90
2018-06-19T01:12:42.233Z,90.47
2018-06-19T01:13:42.166Z,90.95
2018-06-19T01:14:42.401Z,90.47
2018-06-19T01:15:42.151Z,90.95
2018-06-19T01:16:42.437Z,90.42
2018-06-19T01:17:41.871Z,90.56
2018-06-19T01:18:42.371Z,90.56
2018-06-19T01:19:42.371Z,90.85
2018-06-19T01:20:42.371Z,90.66
2018-06-19T01:21:42.369Z,90.47
2018-06-19T01:22:42.247Z,90.28
2018-06-19T01:23:42.140Z,91.14
2018-06-19T01:24:44.030Z,91.62
2018-06-19T01:25:42.406Z,91.33
2018-06-19T01:26:42.203Z,91.96
2018-06-19T01:27:48.138Z,91.96
2018-06-19T01:28:48.114Z,92.24
2018-06-19T01:29:42.128Z,92.44
2018-06-19T01:30:42.122Z,92.63
2018-06-19T01:31:43.580Z,92.54
2018-06-19T01:32:42.676Z,92.72
2018-06-19T01:33:41.643Z,92.24
2018-06-19T01:34:42.231Z,93.11
2018-06-19T01:35:42.218Z,93.21
2018-06-19T01:36:48.167Z,93.21
2018-06-19T01:37:48.235Z,93.40
2018-06-19T01:38:42.164Z,92.91
2018-06-19T01:39:42.182Z,93.11
2018-06-19T01:40:42.169Z,93.15
2018-06-19T01:41:42.211Z,92.91
2018-06-19T01:42:42.176Z,92.91
2018-06-19T01:43:42.105Z,93.01
2018-06-19T01:44:42.167Z,93.40
2018-06-19T01:45:42.217Z,93.40
2018-06-19T01:46:42.187Z,93.97
2018-06-19T01:47:42.177Z,93.78
2018-06-19T01:48:42.177Z,93.40
2018-06-19T01:49:42.150Z,93.49
2018-06-19T01:50:42.148Z,93.11
2018-06-19T01:51:41.700Z,93.68
2018-06-19T01:52:42.162Z,93.49
2018-06-19T01:53:42.217Z,93.68
2018-06-19T01:54:48.249Z,93.78
2018-06-19T01:55:48.205Z,93.88
2018-06-19T01:56:42.193Z,93.78
2018-06-19T01:57:48.164Z,93.68
2018-06-19T01:58:48.173Z,93.30
2018-06-19T01:59:42.291Z,93.49
2018-06-19T02:00:42.159Z,93.97
2018-06-19T02:01:42.442Z,93.59
2018-06-19T02:02:42.222Z,93.88
2018-06-19T02:03:42.201Z,93.88
2018-06-19T02:04:44.034Z,93.30
2018-06-19T02:05:42.158Z,93.78
2018-06-19T02:06:42.161Z,93.97
2018-06-19T02:07:44.348Z,93.97
2018-06-19T02:08:42.276Z,93.59
2018-06-19T02:09:42.700Z,93.49
2018-06-19T02:10:42.282Z,93.88
2018-06-19T02:11:42.200Z,93.21
2018-06-19T02:12:42.167Z,93.40
2018-06-19T02:13:42.169Z,93.01
2018-06-19T02:14:42.169Z,93.21
2018-06-19T02:15:42.161Z,93.21
2018-06-19T02:16:42.209Z,93.01
2018-06-19T02:17:42.177Z,93.11
2018-06-19T02:18:42.171Z,93.40
2018-06-19T02:19:42.203Z,93.01
2018-06-19T02:20:42.199Z,93.11
2018-06-19T02:21:42.169Z,92.91
2018-06-19T02:22:42.134Z,93.49
2018-06-19T02:23:42.218Z,93.30
2018-06-19T02:24:42.211Z,92.82
2018-06-19T02:25:48.262Z,92.91
2018-06-19T02:26:48.205Z,92.82
2018-06-19T02:27:42.226Z,92.82
2018-06-19T02:28:42.197Z,93.11
2018-06-19T02:29:42.349Z,92.72
2018-06-19T02:30:42.256Z,92.72
2018-06-19T02:31:42.197Z,92.34
2018-06-19T02:32:42.160Z,92.44
2018-06-19T02:33:42.176Z,92.34
2018-06-19T02:34:42.153Z,92.54
2018-06-19T02:35:42.189Z,92.72
2018-06-19T02:36:42.151Z,92.15
2018-06-19T02:37:42.194Z,92.54
2018-06-19T02:38:41.555Z,92.15
2018-06-19T02:39:42.123Z,92.82
2018-06-19T02:40:42.189Z,92.63
2018-06-19T02:41:42.205Z,92.82
2018-06-19T02:42:42.198Z,92.72
2018-06-19T02:43:42.155Z,92.63
2018-06-19T02:44:42.197Z,92.63
2018-06-19T02:45:42.237Z,92.24
2018-06-19T02:46:42.172Z,92.34
2018-06-19T02:47:42.164Z,92.82
2018-06-19T02:48:42.209Z,92.44
2018-06-19T02:49:42.173Z,92.72
2018-06-19T02:50:42.204Z,92.91
2018-06-19T02:51:42.193Z,92.15
2018-06-19T02:52:42.256Z,92.72
2018-06-19T02:53:41.657Z,92.72
2018-06-19T02:54:42.404Z,92.82
2018-06-19T02:55:42.223Z,92.44
2018-06-19T02:56:48.177Z,92.44
2018-06-19T02:57:56.259Z,92.63
2018-06-19T02:58:42.212Z,92.54
2018-06-19T02:59:42.201Z,92.15
2018-06-19T03:00:42.220Z,92.54
2018-06-19T03:01:42.220Z,92.63
2018-06-19T03:02:42.182Z,92.72
2018-06-19T03:03:42.532Z,92.24
2018-06-19T03:04:41.933Z,92.24
2018-06-19T03:05:41.879Z,92.44
2018-06-19T03:06:43.770Z,92.24
2018-06-19T03:07:42.106Z,92.05
2018-06-19T03:08:42.428Z,92.24
2018-06-19T03:09:41.547Z,92.05
2018-06-19T03:10:41.629Z,91.67
2018-06-19T03:11:42.438Z,91.77
2018-06-19T03:12:42.332Z,91.77
2018-06-19T03:13:41.941Z,91.57
2018-06-19T03:14:41.932Z,91.67
2018-06-19T03:15:41.933Z,91.38
2018-06-19T03:16:42.222Z,91.28
2018-06-19T03:17:41.934Z,91.77
2018-06-19T03:18:42.051Z,91.57
2018-06-19T03:19:42.259Z,91.77
2018-06-19T03:20:42.028Z,91.67
2018-06-19T03:21:42.022Z,91.19
2018-06-19T03:22:41.940Z,91.19
2018-06-19T03:23:42.032Z,91.09
2018-06-19T03:24:42.192Z,91.09
2018-06-19T03:25:41.963Z,91.48
2018-06-19T03:26:42.036Z,91.28
2018-06-19T03:27:42.032Z,91.57
2018-06-19T03:28:41.993Z,91.19
2018-06-19T03:29:42.494Z,91.48
2018-06-19T03:30:41.920Z,91.38
2018-06-19T03:31:41.875Z,91.57
2018-06-19T03:32:41.857Z,91.28
2018-06-19T03:33:41.872Z,91.28
2018-06-19T03:34:42.228Z,91.48
2018-06-19T03:35:42.022Z,91.09
2018-06-19T03:36:42.059Z,91.19
2018-06-19T03:37:42.023Z,91.28
2018-06-19T03:38:41.889Z,91.28
2018-06-19T03:39:41.978Z,91.48
2018-06-19T03:40:41.988Z,91.48
2018-06-19T03:41:41.901Z,91.48
2018-06-19T03:42:42.016Z,91.67
2018-06-19T03:43:42.233Z,91.67
2018-06-19T03:44:42.098Z,91.19
2018-06-19T03:45:41.963Z,91.28
2018-06-19T03:46:41.943Z,91.48
2018-06-19T03:47:43.838Z,91.28
2018-06-19T03:48:42.427Z,91.28
2018-06-19T03:49:41.407Z,91.19
2018-06-19T03:50:41.395Z,91.28
2018-06-19T03:51:41.863Z,91.38
2018-06-19T03:52:41.917Z,91.28
2018-06-19T03:53:42.404Z,91.57
2018-06-19T03:54:41.468Z,91.09
2018-06-19T03:55:41.592Z,91.28
2018-06-19T03:56:41.460Z,91.28
2018-06-19T03:57:41.874Z,91.28
2018-06-19T03:58:42.046Z,91.48
2018-06-19T03:59:42.222Z,91.28
2018-06-19T04:00:41.637Z,91.67
2018-06-19T04:01:41.816Z,91.28
2018-06-19T04:02:41.865Z,91.67
2018-06-19T04:03:42.069Z,91.28
2018-06-19T04:04:42.121Z,90.81
2018-06-19T04:05:41.935Z,91.28
2018-06-19T04:06:55.842Z,91.19
2018-06-19T04:07:47.745Z,90.42
2018-06-19T04:08:41.664Z,90.56
2018-06-19T04:09:41.995Z,91.28
2018-06-19T04:10:42.048Z,91.48
2018-06-19T04:11:41.763Z,91.48
2018-06-19T04:12:42.208Z,91.00
2018-06-19T04:13:41.390Z,90.90
2018-06-19T04:14:41.631Z,90.81
2018-06-19T04:15:41.598Z,91.38
2018-06-19T04:16:41.596Z,91.48
2018-06-19T04:17:41.555Z,91.57
2018-06-19T04:18:41.922Z,91.28
2018-06-19T04:19:41.924Z,91.48
2018-06-19T04:20:41.888Z,91.28
2018-06-19T04:21:41.566Z,91.28
2018-06-19T04:22:41.923Z,91.77
2018-06-19T04:23:41.889Z,91.67
2018-06-19T04:24:41.630Z,91.67
2018-06-19T04:25:41.925Z,91.77
2018-06-19T04:26:41.873Z,91.67
2018-06-19T04:27:41.639Z,91.67
2018-06-19T04:28:41.649Z,91.28
2018-06-19T04:29:41.616Z,91.67
2018-06-19T04:30:41.623Z,91.77
2018-06-19T04:31:41.928Z,91.19
2018-06-19T04:32:41.915Z,91.72
2018-06-19T04:33:43.096Z,91.33
2018-06-19T04:34:41.930Z,91.00
2018-06-19T04:35:41.611Z,91.28
2018-06-19T04:36:41.919Z,91.57
2018-06-19T04:37:41.397Z,91.00
2018-06-19T04:38:41.684Z,91.67
2018-06-19T04:39:41.393Z,91.38
2018-06-19T04:40:41.700Z,91.72
2018-06-19T04:41:41.652Z,91.19
2018-06-19T04:43:41.931Z,92.05
2018-06-19T04:44:41.930Z,91.77
2018-06-19T04:45:42.155Z,91.67
2018-06-19T04:46:41.789Z,92.05
2018-06-19T04:47:48.238Z,92.44
2018-06-19T04:48:47.936Z,91.96
2018-06-19T04:49:41.657Z,92.44
2018-06-19T04:50:41.610Z,91.62
2018-06-19T04:51:41.906Z,91.72
2018-06-19T04:52:41.673Z,91.81
2018-06-19T04:53:41.896Z,91.86
2018-06-19T04:54:41.931Z,92.77
2018-06-19T04:55:41.630Z,92.29
2018-06-19T04:56:41.934Z,92.44
2018-06-19T04:57:41.647Z,92.91
2018-06-19T04:58:41.933Z,92.72
2018-06-19T04:59:41.630Z,92.63
2018-06-19T05:00:43.789Z,92.82
2018-06-19T05:01:41.573Z,92.72
2018-06-19T05:02:42.169Z,92.82
2018-06-19T05:03:41.855Z,92.34
2018-06-19T05:04:42.267Z,92.29
2018-06-19T05:05:41.644Z,92.48
2018-06-19T05:06:41.936Z,92.63
2018-06-19T05:07:41.937Z,92.77
2018-06-19T05:08:41.900Z,92.44
2018-06-19T05:09:41.943Z,92.54
2018-06-19T05:10:41.652Z,92.86
2018-06-19T05:11:41.938Z,92.82
2018-06-19T05:12:41.953Z,92.91
2018-06-19T05:13:41.919Z,92.86
2018-06-19T05:14:41.636Z,92.77
2018-06-19T05:15:41.944Z,93.11
2018-06-19T05:16:41.871Z,92.82
2018-06-19T05:17:41.626Z,93.25
2018-06-19T05:18:41.935Z,93.01
2018-06-19T05:19:41.614Z,92.91
2018-06-19T05:20:41.945Z,93.44
2018-06-19T05:21:41.485Z,93.25
2018-06-19T05:22:41.803Z,93.06
2018-06-19T05:23:42.239Z,93.06
2018-06-19T05:24:56.221Z,93.40
2018-06-19T05:25:41.943Z,93.40
2018-06-19T05:26:41.893Z,93.25
2018-06-19T05:27:47.946Z,93.15
2018-06-19T05:28:47.946Z,93.25
2018-06-19T05:29:42.251Z,93.25
2018-06-19T05:30:42.174Z,93.25
2018-06-19T05:31:41.302Z,93.11
2018-06-19T05:32:41.709Z,93.44
2018-06-19T05:33:41.690Z,92.96
2018-06-19T05:34:41.715Z,92.91
2018-06-19T05:35:41.687Z,93.40
2018-06-19T05:36:41.718Z,93.44
2018-06-19T05:37:41.950Z,93.06
2018-06-19T05:38:41.787Z,93.44
2018-06-19T05:39:41.809Z,93.15
2018-06-19T05:40:41.738Z,92.86
2018-06-19T05:41:42.370Z,92.86
2018-06-19T05:42:41.822Z,92.96
2018-06-19T05:43:42.369Z,93.25
2018-06-19T05:45:41.312Z,93.92
2018-06-19T05:47:36.259Z,94.02
2018-06-19T05:48:36.662Z,93.25
2018-06-19T05:50:30.574Z,93.25
2018-06-19T05:51:30.556Z,93.82
2018-06-19T05:52:30.547Z,94.12
2018-06-19T05:53:30.518Z,93.82
2018-06-19T05:54:30.537Z,94.45
2018-06-19T05:55:30.573Z,94.40
2018-06-19T05:56:30.682Z,94.49
2018-06-19T05:57:30.550Z,94.35
2018-06-19T05:58:30.840Z,94.54
2018-06-19T05:59:30.498Z,94.21
2018-06-19T06:00:30.546Z,94.84
2018-06-19T06:01:30.542Z,94.59
2018-06-19T06:02:36.559Z,94.88
2018-06-19T06:03:30.547Z,94.79
2018-06-19T06:04:30.854Z,94.79
2018-06-19T06:05:31.192Z,94.69
2018-06-19T06:07:30.173Z,95.17
2018-06-19T06:08:31.227Z,94.59
2018-06-19T06:09:30.720Z,95.26
2018-06-19T06:10:32.895Z,95.17
2018-06-19T06:11:36.842Z,95.55
2018-06-19T06:12:29.138Z,94.98
2018-06-19T06:13:58.454Z,95.94
2018-06-19T06:14:30.843Z,95.65
2018-06-19T06:15:30.895Z,95.60
2018-06-19T06:16:30.884Z,96.32
2018-06-19T06:17:31.195Z,96.18
2018-06-19T06:18:30.335Z,96.27
2018-06-19T06:19:29.086Z,95.94
2018-06-19T06:20:29.083Z,96.51
2018-06-19T06:21:30.780Z,96.13
2018-06-19T06:22:30.350Z,96.13
2018-06-19T06:23:30.576Z,95.94
2018-06-19T06:24:30.867Z,96.42
2018-06-19T06:25:29.211Z,96.51
2018-06-19T06:26:29.606Z,96.47
2018-06-19T06:27:30.642Z,96.27
2018-06-19T06:30:02.025Z,97.04
2018-06-19T06:31:01.963Z,97.71
2018-06-19T06:32:57.399Z,96.99
2018-06-19T06:33:56.203Z,97.38
2018-06-19T06:35:50.377Z,96.70
2018-06-19T06:36:50.401Z,96.89
2018-06-19T06:38:44.489Z,96.70
2018-06-19T06:39:44.491Z,97.19
2018-06-19T06:41:38.713Z,96.70
2018-06-19T06:42:38.638Z,96.51
2018-06-19T06:44:32.831Z,96.22
2018-06-19T06:45:32.816Z,96.27
2018-06-19T06:47:27.035Z,96.08
2018-06-19T06:48:28.244Z,96.08
2018-06-19T06:50:22.252Z,95.79
2018-06-19T06:51:21.883Z,95.89
2018-06-19T06:53:17.162Z,96.56
2018-06-19T06:54:16.880Z,95.98
2018-06-19T06:56:11.060Z,95.98
2018-06-19T06:57:10.209Z,96.37
2018-06-19T06:59:05.039Z,96.51
2018-06-19T07:00:04.438Z,97.19
2018-06-19T07:01:59.059Z,96.37
2018-06-19T07:02:59.386Z,96.75
2018-06-19T07:04:54.266Z,96.37
2018-06-19T07:05:54.730Z,96.94
2018-06-19T07:07:48.455Z,97.33
2018-06-19T07:08:48.681Z,96.37
2018-06-19T07:10:43.116Z,96.37
2018-06-19T07:11:43.123Z,95.89
2018-06-19T07:13:37.028Z,95.89
2018-06-19T07:14:36.800Z,96.18
2018-06-19T07:16:31.507Z,96.47
2018-06-19T07:17:31.983Z,96.85
2018-06-19T07:19:27.054Z,96.94
2018-06-19T07:20:27.027Z,97.14
2018-06-19T07:22:20.019Z,96.75
2018-06-19T07:23:20.278Z,96.37
2018-06-19T07:25:14.480Z,96.61
2018-06-19T07:26:14.740Z,95.94
2018-06-19T07:28:08.655Z,96.51
2018-06-19T07:29:08.510Z,95.75
2018-06-19T07:31:02.641Z,95.75
2018-06-19T07:32:03.676Z,95.75
2018-06-19T07:33:57.072Z,96.13
2018-06-19T07:34:57.695Z,95.65
2018-06-19T07:36:51.168Z,96.42
2018-06-19T07:37:51.802Z,96.18
2018-06-19T07:39:46.190Z,95.94
2018-06-19T07:40:46.365Z,96.32
2018-06-19T07:42:40.077Z,96.13
2018-06-19T07:43:41.951Z,95.65
2018-06-19T07:45:35.228Z,96.13
2018-06-19T07:46:34.165Z,95.84
2018-06-19T07:47:35.194Z,95.75
2018-06-19T07:48:34.587Z,95.94
2018-06-19T07:49:35.092Z,95.84
2018-06-19T07:50:34.022Z,95.94
2018-06-19T07:51:34.432Z,96.03
2018-06-19T07:52:34.665Z,95.65
2018-06-19T07:53:34.706Z,95.84
2018-06-19T07:54:34.506Z,95.94
2018-06-19T07:55:35.220Z,95.75
2018-06-19T07:56:35.119Z,95.84
2018-06-19T07:57:35.048Z,95.36
2018-06-19T07:58:34.548Z,95.94
2018-06-19T07:59:37.170Z,96.22
2018-06-19T08:00:34.209Z,96.03
2018-06-19T08:01:32.984Z,96.51
2018-06-19T08:02:34.708Z,96.61
2018-06-19T08:03:34.792Z,97.38
2018-06-19T08:04:34.727Z,97.19
2018-06-19T08:05:34.719Z,96.99
2018-06-19T08:06:34.759Z,96.70
2018-06-19T08:07:34.403Z,96.70
2018-06-19T08:08:33.973Z,96.89
2018-06-19T08:09:34.386Z,96.80
2018-06-19T08:10:34.361Z,96.80
2018-06-19T08:11:34.436Z,96.99
2018-06-19T08:12:34.708Z,97.38
2018-06-19T08:13:34.775Z,96.99
2018-06-19T08:14:37.671Z,96.99
2018-06-19T08:15:34.719Z,97.09
2018-06-19T08:16:34.738Z,97.19
2018-06-19T08:17:34.762Z,97.47
2018-06-19T08:18:34.714Z,97.19
2018-06-19T08:19:34.714Z,96.70
2018-06-19T08:20:34.713Z,96.70
2018-06-19T08:21:34.468Z,97.28
2018-06-19T08:22:34.777Z,97.57
2018-06-19T08:23:37.392Z,97.09
2018-06-19T08:24:37.046Z,97.47
2018-06-19T08:25:34.214Z,96.99
2018-06-19T08:26:35.009Z,97.57
2018-06-19T08:27:34.634Z,97.57
2018-06-19T08:28:34.685Z,97.38
2018-06-19T08:29:34.719Z,97.47
2018-06-19T08:30:33.968Z,97.09
2018-06-19T08:31:34.694Z,96.99
2018-06-19T08:32:34.402Z,97.19
2018-06-19T08:33:34.490Z,97.47
2018-06-19T08:34:34.680Z,96.99
2018-06-19T08:35:34.726Z,96.89
2018-06-19T08:36:34.434Z,96.32
2018-06-19T08:37:34.692Z,96.61
2018-06-19T08:38:34.717Z,97.09
2018-06-19T08:39:34.729Z,96.89
2018-06-19T08:40:34.789Z,97.38
2018-06-19T08:41:34.745Z,98.34
2018-06-19T08:42:35.095Z,98.43
2018-06-19T08:43:34.726Z,99.01
2018-06-19T08:44:34.723Z,99.20
2018-06-19T08:45:34.731Z,99.99
2018-06-19T08:46:34.591Z,99.99
2018-06-19T08:47:37.253Z,99.99
2018-06-19T08:48:35.255Z,99.99
2018-06-19T08:49:34.184Z,99.99
2018-06-19T08:50:34.730Z,99.99
2018-06-19T08:51:34.481Z,99.99
2018-06-19T08:52:34.618Z,99.99
2018-06-19T08:53:34.508Z,99.99
2018-06-19T08:54:42.273Z,99.99
2018-06-19T08:55:35.092Z,99.15
2018-06-19T08:56:34.074Z,98.96
2018-06-19T08:57:34.875Z,98.00
2018-06-19T08:58:35.321Z,97.33
2018-06-19T08:59:37.074Z,97.14
2018-06-19T09:00:34.716Z,96.80
2018-06-19T09:01:34.811Z,96.70
2018-06-19T09:02:35.241Z,95.55
2018-06-19T09:03:34.734Z,95.65
2018-06-19T09:04:34.497Z,95.26
2018-06-19T09:05:34.522Z,95.75
2018-06-19T09:06:34.740Z,95.17
2018-06-19T09:07:35.323Z,95.17
2018-06-19T09:08:34.746Z,95.17
2018-06-19T09:09:34.743Z,94.78
2018-06-19T09:10:34.505Z,95.07
2018-06-19T09:11:34.739Z,94.59
2018-06-19T09:12:34.746Z,94.49
2018-06-19T09:13:33.985Z,95.26
2018-06-19T09:14:34.695Z,95.65
2018-06-19T09:16:34.478Z,95.65
2018-06-19T09:17:34.668Z,95.17
2018-06-19T09:18:34.695Z,95.36
2018-06-19T09:19:34.746Z,95.26
2018-06-19T09:20:35.052Z,95.17
2018-06-19T09:21:34.696Z,95.65
2018-06-19T09:22:34.756Z,95.65
2018-06-19T09:23:34.418Z,96.13
2018-06-19T09:24:34.718Z,94.88
2018-06-19T09:25:33.972Z,95.26
2018-06-19T09:26:35.156Z,95.75
2018-06-19T09:27:34.636Z,95.17
2018-06-19T09:28:36.259Z,95.65
2018-06-19T09:29:34.699Z,95.65
2018-06-19T09:30:34.745Z,95.17
2018-06-19T09:31:34.802Z,95.17
2018-06-19T09:32:34.737Z,95.26
2018-06-19T09:33:34.699Z,95.26
2018-06-19T09:34:39.904Z,94.98
2018-06-19T09:35:40.780Z,94.40
2018-06-19T09:36:34.796Z,94.49
2018-06-19T09:37:34.796Z,94.40
2018-06-19T09:38:34.445Z,94.78
2018-06-19T09:39:34.446Z,95.94
2018-06-19T09:40:34.742Z,95.94
2018-06-19T09:41:34.439Z,95.07
2018-06-19T09:42:34.743Z,95.31
2018-06-19T09:43:34.670Z,94.98
2018-06-19T09:44:34.746Z,95.45
2018-06-19T09:45:34.759Z,95.75
2018-06-19T09:46:34.752Z,95.55
2018-06-19T09:47:34.481Z,94.88
2018-06-19T09:48:34.061Z,95.60
2018-06-19T09:49:34.710Z,95.26
2018-06-19T09:50:34.744Z,94.98
2018-06-19T09:51:34.754Z,95.65
2018-06-19T09:52:34.211Z,95.84
2018-06-19T09:53:34.816Z,95.84
2018-06-19T09:54:34.754Z,95.70
2018-06-19T09:55:34.729Z,94.73
2018-06-19T09:56:34.750Z,94.92
2018-06-19T09:57:34.710Z,94.64
2018-06-19T09:58:35.205Z,94.64
2018-06-19T09:59:34.268Z,94.64
2018-06-19T10:00:34.811Z,95.12
2018-06-19T10:01:34.230Z,95.12
2018-06-19T10:02:34.779Z,95.36
2018-06-19T10:03:34.515Z,95.75
2018-06-19T10:04:34.710Z,96.80
2018-06-19T10:05:36.468Z,96.13
2018-06-19T10:06:34.719Z,96.03
2018-06-19T10:07:34.778Z,96.80
2018-06-19T10:08:34.314Z,96.22
2018-06-19T10:09:34.755Z,96.22
2018-06-19T10:10:34.800Z,96.61
2018-06-19T10:11:35.785Z,96.61
2018-06-19T10:12:34.718Z,96.61
2018-06-19T10:13:34.761Z,96.13
2018-06-19T10:14:35.799Z,96.32
2018-06-19T10:15:34.492Z,95.94
2018-06-19T10:16:34.220Z,95.89
2018-06-19T10:17:37.872Z,95.89
2018-06-19T10:18:34.575Z,95.79
2018-06-19T10:19:34.775Z,95.02
2018-06-19T10:20:34.649Z,95.40
2018-06-19T10:21:34.668Z,96.03
2018-06-19T10:22:34.759Z,96.03
2018-06-19T10:23:34.559Z,96.22
2018-06-19T10:24:34.484Z,95.84
2018-06-19T10:25:34.804Z,95.84
2018-06-19T10:26:35.103Z,96.32
2018-06-19T10:27:36.362Z,95.89
2018-06-19T10:28:34.734Z,95.89
2018-06-19T10:29:34.527Z,95.84
2018-06-19T10:30:34.670Z,96.32
2018-06-19T10:31:34.022Z,96.61
2018-06-19T10:32:34.781Z,96.32
2018-06-19T10:33:35.245Z,96.03
2018-06-19T10:34:34.259Z,95.60
2018-06-19T10:35:34.769Z,95.94
2018-06-19T10:36:34.461Z,96.03
2018-06-19T10:37:34.735Z,96.08
2018-06-19T10:38:34.725Z,95.79
2018-06-19T10:39:34.769Z,95.12
2018-06-19T10:40:34.730Z,95.12
2018-06-19T10:41:35.057Z,95.31
2018-06-19T10:42:34.785Z,95.12
2018-06-19T10:43:34.331Z,95.21
2018-06-19T10:44:34.161Z,94.78
2018-06-19T10:45:34.274Z,94.30
2018-06-19T10:46:34.836Z,93.91
2018-06-19T10:47:34.726Z,93.91
2018-06-19T10:48:34.545Z,94.01
2018-06-19T10:49:34.814Z,93.43
2018-06-19T10:50:34.727Z,93.62
2018-06-19T10:51:34.989Z,92.71
2018-06-19T10:52:34.581Z,93.53
2018-06-19T10:53:34.510Z,93.57
2018-06-19T10:54:35.092Z,93.09
2018-06-19T10:55:37.117Z,93.00
2018-06-19T10:56:34.539Z,92.61
2018-06-19T10:57:35.869Z,93.00
2018-06-19T10:58:34.519Z,93.09
2018-06-19T10:59:34.299Z,92.90
2018-06-19T11:00:35.159Z,92.32
2018-06-19T11:01:34.731Z,92.22
2018-06-19T11:02:34.792Z,92.52
2018-06-19T11:03:34.537Z,91.94
2018-06-19T11:04:34.524Z,92.03
2018-06-19T11:05:34.758Z,92.52
2018-06-19T11:06:34.957Z,91.94
2018-06-19T11:07:34.244Z,91.65
2018-06-19T11:08:34.631Z,90.83
2018-06-19T11:09:35.265Z,90.83
2018-06-19T11:10:34.802Z,90.59
2018-06-19T11:11:35.701Z,90.54
2018-06-19T11:12:34.329Z,90.83
2018-06-19T11:13:34.502Z,90.73
2018-06-19T11:14:34.821Z,90.25
2018-06-19T11:15:34.510Z,90.06
2018-06-19T11:16:34.500Z,90.73
2018-06-19T11:17:34.780Z,90.44
2018-06-19T11:18:36.760Z,90.06
2018-06-19T11:19:35.107Z,89.33
2018-06-19T11:20:34.780Z,88.56
2018-06-19T11:21:34.286Z,88.56
2018-06-19T11:22:36.744Z,87.35
2018-06-19T11:23:34.766Z,87.06
2018-06-19T11:24:34.791Z,86.29
2018-06-19T11:25:36.897Z,86.48
2018-06-19T11:26:34.823Z,86.33
2018-06-19T11:27:34.540Z,86.10
2018-06-19T11:28:34.793Z,85.75
2018-06-19T11:29:34.266Z,85.37
2018-06-19T11:30:34.786Z,84.16
2018-06-19T11:31:34.749Z,84.06
2018-06-19T11:32:34.815Z,84.31
2018-06-19T11:33:34.785Z,83.67
2018-06-19T11:34:34.796Z,84.69
2018-06-19T11:35:35.137Z,84.74
2018-06-19T11:36:34.189Z,83.87
2018-06-19T11:37:36.350Z,84.98
2018-06-19T11:38:34.859Z,84.21
2018-06-19T11:39:35.527Z,84.25
2018-06-19T11:40:35.112Z,84.16
2018-06-19T11:41:34.546Z,85.85
2018-06-19T11:42:34.556Z,84.89
2018-06-19T11:43:35.194Z,85.08
2018-06-19T11:44:34.829Z,84.59
2018-06-19T11:45:34.820Z,84.59
2018-06-19T11:46:34.352Z,84.01
2018-06-19T11:47:34.639Z,82.71
2018-06-19T11:48:34.605Z,81.59
2018-06-19T11:49:34.804Z,81.99
2018-06-19T11:50:34.753Z,82.71
2018-06-19T11:51:34.792Z,81.78
2018-06-19T11:52:34.588Z,81.98
2018-06-19T11:53:34.518Z,81.11
2018-06-19T11:54:34.806Z,81.65
2018-06-19T11:55:34.801Z,81.68
2018-06-19T11:56:34.815Z,82.03
2018-06-19T11:57:34.802Z,82.61
2018-06-19T11:58:34.757Z,83.09
2018-06-19T11:59:34.758Z,82.90
2018-06-19T12:00:34.811Z,82.51
2018-06-19T12:01:35.683Z,83.83
2018-06-19T12:02:34.269Z,83.63
2018-06-19T12:03:34.759Z,83.09
2018-06-19T12:04:36.102Z,82.86
2018-06-19T12:05:34.389Z,84.41
2018-06-19T12:06:34.802Z,84.89
2018-06-19T12:07:34.211Z,85.56
2018-06-19T12:08:34.858Z,84.79
2018-06-19T12:09:34.801Z,84.89
2018-06-19T12:10:34.508Z,84.75
2018-06-19T12:11:34.598Z,85.42
2018-06-19T12:12:34.848Z,85.23
2018-06-19T12:13:34.709Z,85.61
2018-06-19T12:14:34.836Z,85.08
2018-06-19T12:15:35.159Z,84.21
2018-06-19T12:16:34.793Z,84.41
2018-06-19T12:17:34.591Z,84.11
2018-06-19T12:18:34.788Z,84.01
2018-06-19T12:19:34.722Z,83.63
2018-06-19T12:20:34.783Z,84.31
2018-06-19T12:21:34.839Z,85.17
2018-06-19T12:22:34.274Z,84.84
2018-06-19T12:23:34.657Z,85.08
2018-06-19T12:24:34.818Z,85.37
2018-06-19T12:25:34.769Z,84.89
2018-06-19T12:26:34.815Z,84.69
2018-06-19T12:27:34.774Z,84.54
2018-06-19T12:28:34.820Z,83.77
2018-06-19T12:29:34.567Z,84.06
2018-06-19T12:30:34.815Z,83.77
2018-06-19T12:31:34.539Z,83.77
2018-06-19T12:32:34.820Z,83.58
2018-06-19T12:33:34.818Z,84.69
2018-06-19T12:34:35.100Z,84.31
2018-06-19T12:35:35.331Z,84.11
2018-06-19T12:37:34.358Z,84.69
2018-06-19T12:38:35.150Z,84.01
2018-06-19T12:39:34.817Z,83.92
2018-06-19T12:40:34.820Z,83.39
2018-06-19T12:41:34.630Z,82.17
2018-06-19T12:42:34.548Z,81.49
2018-06-19T12:43:34.549Z,81.84
2018-06-19T12:44:34.819Z,81.68
2018-06-19T12:45:34.643Z,81.59
2018-06-19T12:46:35.120Z,82.07
2018-06-19T12:47:34.277Z,81.88
2018-06-19T12:48:34.823Z,81.88
2018-06-19T12:49:34.645Z,82.71
2018-06-19T12:50:34.593Z,81.45
2018-06-19T12:51:34.741Z,82.61
2018-06-19T12:52:35.070Z,83.67
2018-06-19T12:53:34.829Z,83.58
2018-06-19T12:54:34.825Z,83.87
2018-06-19T12:55:35.255Z,82.96
2018-06-19T12:56:34.685Z,83.09
2018-06-19T12:57:36.347Z,82.81
2018-06-19T12:58:34.854Z,81.74
2018-06-19T12:59:35.133Z,81.01
2018-06-19T13:00:34.869Z,80.91
2018-06-19T13:01:35.292Z,80.08
2018-06-19T13:02:35.269Z,79.99
2018-06-19T13:03:34.720Z,80.24
2018-06-19T13:04:37.219Z,80.24
2018-06-19T13:05:34.586Z,80.14
2018-06-19T13:06:34.832Z,80.47
2018-06-19T13:07:34.688Z,79.99
2018-06-19T13:08:34.647Z,80.18
2018-06-19T13:09:35.130Z,78.83
2018-06-19T13:10:35.141Z,78.44
2018-06-19T13:11:34.795Z,79.75
2018-06-19T13:12:35.150Z,80.05
2018-06-19T13:13:34.892Z,80.47
2018-06-19T13:14:35.248Z,81.01
2018-06-19T13:15:34.840Z,81.01
2018-06-19T13:16:35.142Z,80.78
2018-06-19T13:17:34.303Z,81.74
2018-06-19T13:18:34.839Z,81.40
2018-06-19T13:19:34.906Z,81.01
2018-06-19T13:20:34.793Z,80.47
2018-06-19T13:21:36.337Z,79.31
2018-06-19T13:22:35.105Z,78.29
2018-06-19T13:23:34.671Z,76.93
2018-06-19T13:24:34.834Z,76.20
2018-06-19T13:25:34.866Z,74.49